Time;durP1;ratioP1;P1;durP2;ratioP2;P2;SDS_P1;SDS_P2;PMS_P1;PMS_P2;Temp;Humidity;BMP_temperature;BMP_pressure;BME280_temperature;BME280_humidity;BME280_pressure;Samples;Min_cycle;Max_cycle;Signal;HPM_P1;HPM_P2
2023/02/17 00:01:27;;;;;;;4.23;3.20;;;;;;;8.91;71.68;98968.91;5062455;28;20660;-77
2023/02/17 00:03:54;;;;;;;4.50;3.33;;;;;;;8.95;71.68;98970.47;5061700;28;20209;-77
2023/02/17 00:06:23;;;;;;;4.80;3.20;;;;;;;8.95;71.20;98975.75;5058365;28;20223;-77
2023/02/17 00:08:50;;;;;;;5.63;3.33;;;;;;;8.94;71.61;98974.03;5054120;28;21811;-77
2023/02/17 00:11:17;;;;;;;5.23;3.43;;;;;;;8.92;71.98;98974.13;5054451;28;20244;-77
2023/02/17 00:13:44;;;;;;;4.57;3.33;;;;;;;8.84;72.10;98983.31;5054554;28;20698;-77
2023/02/17 00:16:13;;;;;;;6.40;3.10;;;;;;;8.87;71.85;98965.56;5058200;28;20213;-77
2023/02/17 00:18:41;;;;;;;3.43;3.03;;;;;;;8.84;71.99;98972.78;5065414;28;20207;-76
2023/02/17 00:21:13;;;;;;;6.13;3.43;;;;;;;8.82;72.20;98972.00;5054862;22;20258;-79
2023/02/17 00:23:40;;;;;;;5.23;3.10;;;;;;;8.80;71.20;98964.16;5033919;28;20263;-80
2023/02/17 00:26:07;;;;;;;5.00;3.33;;;;;;;8.72;71.59;98968.09;5033770;28;20673;-80
2023/02/17 00:28:33;;;;;;;4.80;3.27;;;;;;;8.68;71.85;98962.13;5034072;28;20215;-79
2023/02/17 00:30:59;;;;;;;5.50;3.47;;;;;;;8.62;72.17;98962.44;5033719;28;20236;-79
2023/02/17 00:33:26;;;;;;;4.10;3.33;;;;;;;8.60;71.95;98956.38;5033919;28;20233;-79
2023/02/17 00:35:54;;;;;;;4.27;3.17;;;;;;;8.56;71.58;98952.19;5033736;28;20224;-79
2023/02/17 00:38:20;;;;;;;5.43;3.60;;;;;;;8.56;71.63;98957.47;5033416;28;20231;-79
2023/02/17 00:40:47;;;;;;;5.57;3.37;;;;;;;8.62;71.59;98951.06;5033706;28;20235;-79
2023/02/17 00:43:13;;;;;;;5.43;3.90;;;;;;;8.66;71.24;98952.59;5033890;28;20214;-79
2023/02/17 00:45:40;;;;;;;5.00;3.30;;;;;;;8.71;71.17;98951.47;5033733;28;20207;-79
2023/02/17 00:48:06;;;;;;;4.40;3.37;;;;;;;8.75;71.50;98952.16;5033298;28;20212;-79
2023/02/17 00:50:33;;;;;;;6.00;3.40;;;;;;;8.74;71.63;98955.69;5033257;28;20325;-80
2023/02/17 00:53:01;;;;;;;3.97;3.40;;;;;;;8.75;71.75;98965.34;5033680;28;20214;-79
2023/02/17 00:55:27;;;;;;;4.67;3.60;;;;;;;8.74;72.07;98968.88;5033680;28;20223;-79
2023/02/17 00:57:54;;;;;;;4.23;3.20;;;;;;;8.73;71.79;98962.78;5033139;28;20216;-80
2023/02/17 01:00:20;;;;;;;4.57;3.50;;;;;;;8.77;71.67;98972.25;5033366;28;20230;-79
2023/02/17 01:02:47;;;;;;;5.33;3.03;;;;;;;8.79;71.44;98962.47;5033331;28;20222;-79
2023/02/17 01:05:13;;;;;;;4.47;3.10;;;;;;;8.78;71.37;98962.53;5033922;28;20216;-79
2023/02/17 01:07:40;;;;;;;4.57;3.60;;;;;;;8.76;71.42;98965.25;5032804;28;20206;-79
2023/02/17 01:10:09;;;;;;;5.53;3.60;;;;;;;8.80;71.25;98960.66;5033265;28;20275;-80
2023/02/17 01:12:36;;;;;;;5.77;3.00;;;;;;;8.80;71.49;98958.03;5033099;28;20220;-79
2023/02/17 01:15:03;;;;;;;4.53;3.00;;;;;;;8.76;71.55;98953.88;5032972;28;20213;-79
2023/02/17 01:17:29;;;;;;;6.60;3.53;;;;;;;8.74;71.31;98953.94;5032523;28;20237;-80
2023/02/17 01:19:56;;;;;;;5.17;3.57;;;;;;;8.73;70.67;98943.44;5032518;28;20587;-79
2023/02/17 01:22:23;;;;;;;5.73;3.23;;;;;;;8.79;70.79;98951.94;5033008;28;20285;-79
2023/02/17 01:24:49;;;;;;;4.13;3.10;;;;;;;8.83;70.73;98944.72;5032806;28;20216;-79
2023/02/17 01:27:17;;;;;;;4.53;3.40;;;;;;;8.82;70.75;98948.28;5032261;28;20208;-79
2023/02/17 01:29:45;;;;;;;4.93;3.10;;;;;;;8.84;71.45;98946.41;5032667;28;20652;-79
2023/02/17 01:32:11;;;;;;;6.73;3.63;;;;;;;8.80;71.07;98936.94;5032458;28;20286;-79
2023/02/17 01:34:38;;;;;;;4.53;3.20;;;;;;;8.77;71.42;98937.13;5032937;28;20223;-79
2023/02/17 01:37:04;;;;;;;5.03;3.20;;;;;;;8.76;72.09;98941.53;5032584;28;20460;-77
2023/02/17 01:39:31;;;;;;;5.17;3.50;;;;;;;8.76;72.24;98944.16;5032594;28;20228;-79
2023/02/17 01:41:57;;;;;;;4.20;3.27;;;;;;;8.83;72.24;98944.72;5032571;28;20205;-79
2023/02/17 01:44:26;;;;;;;3.77;2.77;;;;;;;8.79;72.38;98937.88;5032384;28;20211;-78
2023/02/17 01:46:54;;;;;;;3.40;2.97;;;;;;;8.84;72.35;98922.69;5031960;28;20217;-78
2023/02/17 01:49:28;;;;;;;4.73;2.67;;;;;;;8.80;72.39;98924.63;5032244;28;20681;-78
2023/02/17 01:52:04;;;;;;;4.90;2.63;;;;;;;8.81;72.72;98922.88;5032458;28;20241;-78
2023/02/17 01:54:36;;;;;;;4.30;3.13;;;;;;;8.80;72.87;98924.63;5032875;28;20210;-78
2023/02/17 01:57:03;;;;;;;4.20;2.90;;;;;;;8.81;72.83;98926.34;5033423;28;20219;-78
2023/02/17 01:59:31;;;;;;;3.93;3.07;;;;;;;8.79;72.68;98927.34;5034590;28;20238;-78
2023/02/17 02:02:00;;;;;;;3.77;2.80;;;;;;;8.79;73.32;98929.97;5033718;28;20259;-78
2023/02/17 02:04:31;;;;;;;3.23;2.90;;;;;;;8.81;73.23;98931.59;5033450;28;20217;-78
2023/02/17 02:06:58;;;;;;;6.07;3.10;;;;;;;8.85;72.49;98922.63;5032033;28;20210;-78
2023/02/17 02:09:31;;;;;;;4.97;2.80;;;;;;;8.90;72.80;98919.75;5031898;28;20222;-78
2023/02/17 02:11:58;;;;;;;4.90;3.00;;;;;;;8.88;73.06;98914.56;5032223;28;20219;-78
2023/02/17 02:14:26;;;;;;;3.57;2.80;;;;;;;8.89;73.26;98920.69;5031731;28;20250;-78
2023/02/17 02:17:04;;;;;;;4.63;2.87;;;;;;;8.85;73.38;98922.63;5031441;28;20215;-78
2023/02/17 02:20:02;;;;;;;4.83;2.90;;;;;;;8.84;73.54;98909.53;5031533;28;20238;-78
2023/02/17 02:22:57;;;;;;;4.20;3.03;;;;;;;8.88;73.38;98919.00;5031793;28;20210;-78
2023/02/17 02:25:45;;;;;;;4.77;2.87;;;;;;;8.85;72.96;98911.22;5031648;28;20219;-78
2023/02/17 02:28:27;;;;;;;5.43;2.87;;;;;;;8.82;73.42;98916.66;5031323;28;20224;-78
2023/02/17 02:31:12;;;;;;;6.17;2.87;;;;;;;8.78;73.36;98915.09;5031488;28;20236;-78
2023/02/17 02:33:43;;;;;;;7.33;3.27;;;;;;;8.76;73.45;98912.53;5031474;28;20649;-78
2023/02/17 02:36:13;;;;;;;4.60;3.23;;;;;;;8.73;73.83;98911.81;5031205;28;20216;-78
2023/02/17 02:38:43;;;;;;;5.40;3.00;;;;;;;8.77;73.28;98902.84;5031033;28;20252;-78
2023/02/17 02:41:14;;;;;;;4.70;2.70;;;;;;;8.79;73.52;98906.25;5031259;28;20658;-78
2023/02/17 02:43:42;;;;;;;6.87;3.07;;;;;;;8.80;73.08;98900.03;5031463;28;20213;-78
2023/02/17 02:46:08;;;;;;;4.30;3.00;;;;;;;8.81;73.18;98899.16;5030908;28;20209;-78
2023/02/17 02:48:36;;;;;;;3.90;2.90;;;;;;;8.79;73.16;98893.94;5031384;28;20217;-78
2023/02/17 02:51:20;;;;;;;5.63;3.40;;;;;;;8.75;73.41;98894.19;5031029;28;20699;-78
2023/02/17 02:54:24;;;;;;;4.73;3.07;;;;;;;8.76;73.36;98894.06;5031456;28;20208;-78
2023/02/17 02:57:04;;;;;;;3.97;2.83;;;;;;;8.80;73.19;98892.13;5031135;28;20663;-78
2023/02/17 02:59:42;;;;;;;3.73;2.93;;;;;;;8.81;73.35;98888.59;5031045;28;20742;-78
2023/02/17 03:02:17;;;;;;;6.27;2.87;;;;;;;8.80;73.17;98892.13;5031379;28;20685;-78
2023/02/17 03:04:51;;;;;;;4.30;2.70;;;;;;;8.79;73.02;98878.13;5031385;28;20218;-78
2023/02/17 03:07:24;;;;;;;4.70;2.70;;;;;;;8.82;73.65;98882.41;5031009;28;20209;-78
2023/02/17 03:09:52;;;;;;;4.53;3.23;;;;;;;8.74;74.17;98881.91;5031037;28;20302;-78
2023/02/17 03:12:19;;;;;;;5.77;3.23;;;;;;;8.68;74.07;98883.06;5030994;28;20229;-78
2023/02/17 03:14:49;;;;;;;5.50;3.27;;;;;;;8.67;74.21;98875.25;5031438;28;20244;-78
2023/02/17 03:17:15;;;;;;;4.47;2.60;;;;;;;8.60;74.81;98873.84;5030835;28;20211;-78
2023/02/17 03:19:44;;;;;;;5.37;2.90;;;;;;;8.57;75.07;98877.47;5030649;28;20251;-77
2023/02/17 03:22:17;;;;;;;3.47;2.70;;;;;;;8.54;74.73;98879.41;5030799;28;20218;-78
2023/02/17 03:24:44;;;;;;;4.90;2.90;;;;;;;8.52;74.71;98881.28;5030791;28;20280;-78
2023/02/17 03:27:11;;;;;;;3.67;2.60;;;;;;;8.52;74.66;98878.66;5030683;28;20224;-78
2023/02/17 03:29:38;;;;;;;4.53;3.20;;;;;;;8.57;74.78;98889.81;5030904;28;20237;-77
2023/02/17 03:32:05;;;;;;;3.60;2.70;;;;;;;8.60;74.55;98879.09;5030820;28;20252;-77
2023/02/17 03:34:32;;;;;;;3.13;2.67;;;;;;;8.64;74.78;98880.69;5030915;28;20220;-77
2023/02/17 03:36:58;;;;;;;4.50;2.90;;;;;;;8.71;73.75;98876.81;5030636;28;20226;-79
2023/02/17 03:39:24;;;;;;;3.90;2.73;;;;;;;8.72;72.74;98865.31;5030685;28;20307;-79
2023/02/17 03:41:53;;;;;;;3.77;2.87;;;;;;;8.73;73.18;98873.16;5030807;28;20680;-78
2023/02/17 03:44:19;;;;;;;8.43;3.53;;;;;;;8.73;73.42;98872.28;5031013;28;20213;-79
2023/02/17 03:46:46;;;;;;;4.87;3.13;;;;;;;8.71;73.15;98876.81;5030579;28;20214;-79
2023/02/17 03:49:13;;;;;;;6.13;3.10;;;;;;;8.74;72.76;98871.38;5031934;28;20209;-78
2023/02/17 03:51:40;;;;;;;4.13;3.50;;;;;;;8.72;72.71;98873.22;5034596;28;20229;-78
2023/02/17 03:54:06;;;;;;;4.13;2.73;;;;;;;8.70;73.21;98885.63;5034571;28;20221;-78
2023/02/17 03:56:33;;;;;;;6.63;2.90;;;;;;;8.67;73.30;98880.50;5034437;28;20212;-79
2023/02/17 03:59:01;;;;;;;4.53;3.23;;;;;;;8.62;73.48;98879.91;5034435;28;20206;-78
2023/02/17 04:01:27;;;;;;;8.10;3.03;;;;;;;8.62;73.38;98874.63;5034551;28;20249;-78
2023/02/17 04:03:54;;;;;;;5.10;3.20;;;;;;;8.64;73.09;98885.94;5034402;28;20204;-78
2023/02/17 04:06:20;;;;;;;4.93;3.13;;;;;;;8.62;73.64;98887.81;5033913;28;20213;-78
2023/02/17 04:08:47;;;;;;;5.30;3.40;;;;;;;8.62;74.10;98888.66;5034434;28;20208;-78
2023/02/17 04:11:13;;;;;;;3.80;3.10;;;;;;;8.65;73.96;98892.91;5034301;28;20229;-78
2023/02/17 04:13:40;;;;;;;5.60;3.00;;;;;;;8.64;74.09;98892.06;5034325;28;20209;-77
2023/02/17 04:16:09;;;;;;;4.80;3.43;;;;;;;8.67;74.11;98891.91;5034185;28;20216;-78
2023/02/17 04:18:36;;;;;;;5.17;2.90;;;;;;;8.73;73.77;98896.88;5034279;28;20244;-78
2023/02/17 04:21:02;;;;;;;3.90;2.70;;;;;;;8.77;74.36;98898.44;5034067;28;20246;-78
2023/02/17 04:23:29;;;;;;;4.37;3.13;;;;;;;8.73;74.75;98901.28;5034433;28;20205;-78
2023/02/17 04:25:55;;;;;;;4.17;3.30;;;;;;;8.76;74.81;98904.63;5034254;28;20219;-78
2023/02/17 04:28:22;;;;;;;5.40;3.07;;;;;;;8.75;75.45;98899.44;5033726;28;20819;-78
2023/02/17 04:30:50;;;;;;;6.07;2.90;;;;;;;8.71;75.58;98903.16;5033758;28;20224;-78
2023/02/17 04:33:18;;;;;;;5.23;2.57;;;;;;;8.77;75.57;98892.31;5033604;28;20235;-78
2023/02/17 04:35:45;;;;;;;5.17;3.33;;;;;;;8.74;75.99;98893.31;5034044;28;20210;-78
2023/02/17 04:38:12;;;;;;;6.27;3.33;;;;;;;8.75;75.93;98891.53;5033457;28;20212;-78
2023/02/17 04:40:38;;;;;;;7.80;3.00;;;;;;;8.83;75.68;98892.00;5033656;28;20254;-78
2023/02/17 04:43:05;;;;;;;3.60;2.90;;;;;;;8.85;75.57;98895.41;5033784;28;20300;-78
2023/02/17 04:45:31;;;;;;;5.17;3.23;;;;;;;8.89;76.05;98889.06;5033447;28;20217;-78
2023/02/17 04:47:58;;;;;;;5.63;2.90;;;;;;;8.87;75.92;98888.28;5033115;28;20208;-78
2023/02/17 04:50:26;;;;;;;5.80;2.73;;;;;;;8.89;76.06;98886.44;5033584;28;20246;-78
2023/02/17 04:52:52;;;;;;;6.27;3.30;;;;;;;8.88;75.99;98884.72;5033362;28;20735;-78
2023/02/17 04:55:19;;;;;;;4.50;2.90;;;;;;;8.92;75.94;98880.97;5033396;28;20211;-78
2023/02/17 04:57:45;;;;;;;4.70;2.77;;;;;;;8.98;76.00;98883.31;5033111;28;20221;-78
2023/02/17 05:00:12;;;;;;;5.50;3.33;;;;;;;9.03;76.42;98889.19;5032924;28;20233;-78
2023/02/17 05:02:39;;;;;;;3.90;2.90;;;;;;;9.02;77.17;98892.78;5033072;28;20227;-78
2023/02/17 05:05:06;;;;;;;4.10;2.93;;;;;;;9.05;77.75;98892.63;5033351;28;20211;-78
2023/02/17 05:07:34;;;;;;;3.97;2.80;;;;;;;9.11;77.62;98893.16;5032976;28;20308;-78
2023/02/17 05:10:00;;;;;;;3.63;2.90;;;;;;;9.17;77.60;98887.56;5033162;28;20583;-78
2023/02/17 05:12:27;;;;;;;5.23;2.87;;;;;;;9.21;77.73;98889.13;5032985;28;20236;-78
2023/02/17 05:14:53;;;;;;;6.43;3.30;;;;;;;9.30;77.01;98893.06;5033053;28;20626;-78
2023/02/17 05:17:20;;;;;;;5.13;3.07;;;;;;;9.30;76.86;98893.06;5032577;28;20243;-78
2023/02/17 05:19:46;;;;;;;3.97;2.93;;;;;;;9.30;77.29;98888.63;5032923;28;20255;-78
2023/02/17 05:22:12;;;;;;;4.23;3.10;;;;;;;9.31;77.57;98892.13;5032791;28;20221;-78
2023/02/17 05:24:40;;;;;;;4.20;2.90;;;;;;;9.34;77.49;98882.28;5032774;28;20213;-78
2023/02/17 05:27:07;;;;;;;6.20;2.90;;;;;;;9.43;76.79;98886.22;5032445;28;20209;-78
2023/02/17 05:29:33;;;;;;;4.13;2.80;;;;;;;9.47;76.88;98885.09;5032470;28;20229;-78
2023/02/17 05:32:00;;;;;;;6.30;2.97;;;;;;;9.48;76.80;98886.84;5032546;28;20226;-78
2023/02/17 05:34:26;;;;;;;3.93;3.00;;;;;;;9.51;76.31;98894.56;5032733;28;20296;-78
2023/02/17 05:36:53;;;;;;;6.90;3.00;;;;;;;9.55;76.37;98890.84;5032220;28;20215;-78
2023/02/17 05:39:19;;;;;;;6.13;3.20;;;;;;;9.55;76.36;98906.69;5032405;28;20220;-78
2023/02/17 05:41:47;;;;;;;5.20;3.10;;;;;;;9.52;76.85;98896.28;5032330;28;20206;-78
2023/02/17 05:44:13;;;;;;;6.07;2.90;;;;;;;9.50;77.21;98906.06;5032334;28;20222;-78
2023/02/17 05:46:40;;;;;;;4.63;2.63;;;;;;;9.53;77.22;98905.88;5032758;28;20213;-78
2023/02/17 05:49:06;;;;;;;5.67;3.00;;;;;;;9.50;77.63;98906.94;5033466;28;20211;-78
2023/02/17 05:51:33;;;;;;;4.67;2.73;;;;;;;9.58;77.63;98917.94;5033347;28;20217;-78
2023/02/17 05:53:59;;;;;;;4.17;3.30;;;;;;;9.56;78.38;98913.66;5034720;28;20208;-80
2023/02/17 05:56:26;;;;;;;5.37;3.20;;;;;;;9.63;78.25;98917.69;5036483;28;20205;-78
2023/02/17 05:58:54;;;;;;;4.70;3.20;;;;;;;9.66;78.28;98917.53;5036572;28;20226;-78
2023/02/17 06:01:20;;;;;;;6.20;3.20;;;;;;;9.63;78.92;98922.94;5032385;28;20250;-78
2023/02/17 06:03:47;;;;;;;6.73;3.73;;;;;;;9.62;79.25;98929.19;5032551;28;20209;-78
2023/02/17 06:06:13;;;;;;;6.57;3.20;;;;;;;9.65;79.71;98926.34;5031951;28;20214;-79
2023/02/17 06:08:40;;;;;;;4.97;3.00;;;;;;;9.61;80.10;98930.94;5032101;28;20215;-79
2023/02/17 06:11:06;;;;;;;6.13;3.30;;;;;;;9.61;80.91;98930.13;5031694;28;20294;-79
2023/02/17 06:13:33;;;;;;;5.60;2.90;;;;;;;9.58;81.15;98935.53;5031420;28;20239;-79
2023/02/17 06:16:01;;;;;;;4.87;2.90;;;;;;;9.58;81.70;98940.81;5032238;28;20236;-79
2023/02/17 06:18:27;;;;;;;5.10;3.37;;;;;;;9.61;82.13;98943.31;5031879;28;20213;-79
2023/02/17 06:20:55;;;;;;;4.90;3.33;;;;;;;9.55;83.03;98943.63;5057751;22;20241;-86
2023/02/17 06:23:22;;;;;;;7.67;3.23;;;;;;;9.59;83.29;98945.16;5053020;28;20208;-87
2023/02/17 06:25:48;;;;;;;4.93;3.30;;;;;;;9.60;83.70;98946.88;5052720;28;20696;-87
2023/02/17 06:28:15;;;;;;;6.17;3.23;;;;;;;9.57;84.54;98961.09;5052607;28;20215;-87
2023/02/17 06:30:41;;;;;;;5.63;3.07;;;;;;;9.56;85.26;98959.38;5052762;28;20245;-87
2023/02/17 06:33:09;;;;;;;5.97;3.47;;;;;;;9.62;85.14;98956.41;5053453;28;20232;-87
2023/02/17 06:35:36;;;;;;;4.57;3.10;;;;;;;9.66;85.33;98955.31;5053400;28;20217;-87
2023/02/17 06:38:03;;;;;;;4.27;3.17;;;;;;;9.71;85.45;98952.44;5055536;28;20211;-86
2023/02/17 06:40:29;;;;;;;4.83;3.00;;;;;;;9.75;84.94;98954.84;5054257;28;20238;-86
2023/02/17 06:42:56;;;;;;;4.33;3.20;;;;;;;9.74;85.10;98952.28;5054566;28;20201;-86
2023/02/17 06:45:22;;;;;;;5.20;2.80;;;;;;;9.78;85.01;98951.19;5053721;28;20210;-86
2023/02/17 06:47:49;;;;;;;4.47;3.13;;;;;;;9.75;85.49;98953.97;5053334;28;20214;-86
2023/02/17 06:50:17;;;;;;;6.97;3.73;;;;;;;9.73;86.15;98955.88;5053843;28;20233;-86
2023/02/17 06:52:43;;;;;;;4.93;3.60;;;;;;;9.71;85.95;98955.06;5053750;28;20232;-86
2023/02/17 06:55:10;;;;;;;3.87;3.17;;;;;;;9.73;86.61;98961.13;5053434;28;20302;-86
2023/02/17 06:57:37;;;;;;;5.17;3.23;;;;;;;9.71;87.27;98968.25;5053418;28;20214;-86
2023/02/17 07:00:04;;;;;;;3.50;2.90;;;;;;;9.71;87.61;98970.91;5053118;28;20702;-86
2023/02/17 07:02:31;;;;;;;5.03;2.97;;;;;;;9.78;87.45;98969.69;5053107;28;20214;-86
2023/02/17 07:04:57;;;;;;;3.43;2.83;;;;;;;9.74;87.54;98978.69;5052999;28;20210;-86
2023/02/17 07:07:25;;;;;;;3.70;2.80;;;;;;;9.73;88.03;98976.97;5051533;28;20210;-87
2023/02/17 07:09:51;;;;;;;5.03;2.87;;;;;;;9.72;88.02;98977.91;5051105;28;20248;-87
2023/02/17 07:12:18;;;;;;;4.63;3.00;;;;;;;9.76;87.91;98976.81;5051599;28;20234;-84
2023/02/17 07:14:44;;;;;;;5.83;3.07;;;;;;;9.71;88.23;98978.81;5051302;28;20680;-84
2023/02/17 07:17:11;;;;;;;3.73;2.97;;;;;;;9.74;88.41;98981.31;5051403;28;20210;-85
2023/02/17 07:19:37;;;;;;;5.10;2.97;;;;;;;9.76;87.98;98971.53;5051206;28;20211;-86
2023/02/17 07:22:04;;;;;;;3.27;2.70;;;;;;;9.78;88.02;98980.25;5051184;28;20224;-86
2023/02/17 07:24:32;;;;;;;3.63;3.00;;;;;;;9.81;87.64;98980.94;5054830;28;20216;-87
2023/02/17 07:26:59;;;;;;;4.43;3.10;;;;;;;9.85;87.32;98984.25;5055268;28;20674;-86
2023/02/17 07:29:26;;;;;;;4.60;2.80;;;;;;;9.84;87.97;98993.13;5055661;28;20221;-86
2023/02/17 07:31:53;;;;;;;5.03;2.90;;;;;;;9.86;88.11;98993.88;5055557;28;20234;-87
2023/02/17 07:34:19;;;;;;;4.87;3.07;;;;;;;9.85;88.26;98986.91;5055339;28;20228;-88
2023/02/17 07:36:46;;;;;;;3.37;2.57;;;;;;;9.87;88.01;98987.66;5055519;28;20586;-87
2023/02/17 07:39:12;;;;;;;5.37;2.80;;;;;;;9.85;88.56;98995.66;5055789;28;20234;-87
2023/02/17 07:41:40;;;;;;;3.87;2.80;;;;;;;9.92;88.53;98981.19;5059971;28;20236;-87
2023/02/17 07:44:07;;;;;;;5.90;2.60;;;;;;;9.92;88.19;98985.63;5064859;28;20206;-87
2023/02/17 07:46:33;;;;;;;3.87;2.50;;;;;;;9.97;87.81;98986.25;5055760;28;20226;-85
2023/02/17 07:49:00;;;;;;;5.20;2.93;;;;;;;9.96;88.39;98990.66;5055435;28;20208;-88
2023/02/17 07:51:26;;;;;;;5.80;2.97;;;;;;;9.98;88.55;98993.22;5054625;28;20243;-87
2023/02/17 07:53:53;;;;;;;6.10;3.60;;;;;;;10.03;88.25;98986.78;5053462;28;20233;-88
2023/02/17 07:56:23;;;;;;;5.33;2.57;;;;;;;10.05;88.30;98994.63;5054645;28;20700;-88
2023/02/17 07:58:51;;;;;;;3.97;2.80;;;;;;;10.08;88.59;98984.75;5054961;28;20209;-87
2023/02/17 08:01:20;;;;;;;3.47;2.73;;;;;;;10.09;88.48;98990.91;5054679;28;20224;-88
2023/02/17 08:03:47;;;;;;;3.77;2.80;;;;;;;10.08;89.18;98997.09;5054680;28;20207;-87
2023/02/17 08:06:15;;;;;;;3.47;2.70;;;;;;;10.17;88.91;99000.13;5054234;28;20229;-89
2023/02/17 08:14:12;;;;;;;4.80;2.90;;;;;;;10.28;89.55;98992.44;5052826;28;20215;-85
2023/02/17 08:16:39;;;;;;;3.37;2.67;;;;;;;10.37;89.01;98991.09;5053006;28;20217;-85
2023/02/17 08:19:05;;;;;;;3.10;2.20;;;;;;;10.47;88.87;98994.97;5052523;28;20213;-90
2023/02/17 08:21:32;;;;;;;3.77;2.23;;;;;;;10.52;88.66;99000.84;5052983;28;20247;-90
2023/02/17 08:23:59;;;;;;;3.17;2.37;;;;;;;10.50;88.79;99000.06;5053558;28;20204;-89
2023/02/17 08:26:25;;;;;;;4.60;2.50;;;;;;;10.58;89.00;98995.22;5053336;28;20692;-90
2023/02/17 08:28:52;;;;;;;3.87;2.70;;;;;;;10.58;88.82;98996.06;5053422;28;20591;-89
2023/02/17 08:31:22;;;;;;;3.33;2.43;;;;;;;10.64;88.57;98989.59;5053499;28;20222;-90
2023/02/17 08:33:49;;;;;;;4.03;2.63;;;;;;;10.63;88.66;99003.72;5053527;28;20235;-88
2023/02/17 08:36:16;;;;;;;3.43;2.40;;;;;;;10.64;88.50;98994.88;5052555;28;20227;-89
2023/02/17 08:38:47;;;;;;;5.27;2.73;;;;;;;10.60;88.64;98993.34;5052833;28;20212;-90
2023/02/17 08:41:16;;;;;;;3.67;2.10;;;;;;;10.65;88.93;98991.28;5053563;28;20232;-90
2023/02/17 08:43:43;;;;;;;3.53;2.40;;;;;;;10.64;89.43;98994.88;5052915;28;20201;-90
2023/02/17 08:46:11;;;;;;;5.30;2.83;;;;;;;10.60;89.78;98988.91;5053405;28;20211;-90
2023/02/17 08:48:39;;;;;;;5.30;2.50;;;;;;;10.61;89.75;98993.25;5052882;28;20211;-90
2023/02/17 08:51:06;;;;;;;4.03;2.23;;;;;;;10.71;89.95;98988.31;5055011;28;20232;-90
2023/02/17 08:53:33;;;;;;;4.03;2.80;;;;;;;10.69;90.35;98996.31;5057936;28;20234;-89
2023/02/17 08:56:00;;;;;;;4.10;2.63;;;;;;;10.80;89.99;99003.63;5063803;28;20218;-88
2023/02/17 08:58:26;;;;;;;2.63;2.20;;;;;;;10.75;90.37;98992.47;5073594;28;20203;-88
2023/02/17 09:00:53;;;;;;;4.87;2.97;;;;;;;10.79;90.17;98994.00;5077005;28;20208;-88
2023/02/17 09:03:19;;;;;;;3.03;2.07;;;;;;;10.71;90.75;98993.59;5069793;28;20644;-88
2023/02/17 09:05:47;;;;;;;3.63;2.33;;;;;;;10.78;90.66;98990.53;5053400;28;20314;-88
2023/02/17 09:08:14;;;;;;;5.10;2.53;;;;;;;10.68;91.11;98988.47;5052838;28;20212;-86
2023/02/17 09:10:40;;;;;;;3.60;2.47;;;;;;;10.71;91.17;98985.66;5052703;28;20596;-88
2023/02/17 09:13:07;;;;;;;3.83;2.47;;;;;;;10.63;91.68;98982.56;5053394;28;20228;-88
2023/02/17 09:15:33;;;;;;;2.90;2.30;;;;;;;10.64;91.83;98994.88;5052994;28;20224;-88
2023/02/17 09:18:01;;;;;;;3.40;2.30;;;;;;;10.62;92.46;98994.09;5051853;28;20202;-89
2023/02/17 09:20:27;;;;;;;2.70;2.20;;;;;;;10.66;92.44;98993.84;5051575;28;20234;-88
2023/02/17 09:22:55;;;;;;;6.13;2.57;;;;;;;10.73;92.83;99005.78;5049528;28;20213;-88
2023/02/17 09:25:22;;;;;;;4.13;2.30;;;;;;;10.72;92.58;99016.44;5049443;28;20204;-89
2023/02/17 09:27:49;;;;;;;3.97;2.13;;;;;;;10.78;92.12;99008.16;5049359;28;20204;-89
2023/02/17 09:30:15;;;;;;;3.17;2.27;;;;;;;10.80;92.22;99012.44;5051323;28;20285;-86
2023/02/17 09:32:42;;;;;;;3.93;2.40;;;;;;;10.86;92.63;99005.94;5051271;28;20217;-85
2023/02/17 09:35:11;;;;;;;3.23;2.10;;;;;;;10.91;92.28;99011.81;5050573;28;20219;-87
2023/02/17 09:37:38;;;;;;;2.20;2.00;;;;;;;10.95;92.08;99016.84;5050568;28;20211;-87
2023/02/17 09:40:08;;;;;;;2.00;1.80;;;;;;;11.05;91.56;99011.88;5052500;28;20233;-87
2023/02/17 09:42:40;;;;;;;3.17;2.20;;;;;;;11.16;91.37;99014.78;5052391;28;20209;-88
2023/02/17 09:45:11;;;;;;;3.27;2.10;;;;;;;11.17;90.71;99032.34;5052512;28;20679;-88
2023/02/17 09:47:42;;;;;;;3.73;2.00;;;;;;;11.23;91.15;99016.13;5051389;28;20346;-88
2023/02/17 09:50:12;;;;;;;2.23;1.80;;;;;;;11.22;91.41;99020.56;5052624;28;20228;-86
2023/02/17 09:52:47;;;;;;;4.20;2.10;;;;;;;11.26;91.26;99029.19;5051651;28;20227;-84
2023/02/17 09:55:21;;;;;;;3.07;1.97;;;;;;;11.23;91.94;99034.63;5051662;28;20208;-89
2023/02/17 09:57:54;;;;;;;3.38;1.98;;;;;;;11.40;91.68;99026.59;5051620;28;20458;-88
2023/02/17 10:00:25;;;;;;;2.00;1.80;;;;;;;11.47;91.17;99030.56;5052483;28;20234;-89
2023/02/17 10:03:01;;;;;;;2.60;1.93;;;;;;;11.59;91.01;99024.59;5052440;28;20226;-87
2023/02/17 10:05:34;;;;;;;2.87;1.90;;;;;;;11.57;90.53;99031.75;5052396;28;20207;-87
2023/02/17 10:08:07;;;;;;;2.67;1.57;;;;;;;11.58;90.17;99023.75;5052184;28;20217;-88
2023/02/17 10:10:43;;;;;;;3.27;2.00;;;;;;;11.71;90.15;99023.88;5052751;28;20241;-88
2023/02/17 10:13:10;;;;;;;2.10;1.90;;;;;;;11.73;89.74;99019.34;5052482;28;20218;-87
2023/02/17 10:15:41;;;;;;;3.33;1.93;;;;;;;11.79;90.39;99013.69;5052306;28;20209;-80
2023/02/17 10:18:13;;;;;;;3.63;1.50;;;;;;;11.98;89.86;99019.56;5051833;28;20206;-86
2023/02/17 10:20:41;;;;;;;2.63;1.73;;;;;;;12.24;88.10;99018.81;5052008;28;20233;-86
2023/02/17 10:23:15;;;;;;;2.13;1.40;;;;;;;12.43;87.16;98998.16;5052156;28;20223;-86
2023/02/17 10:25:57;;;;;;;10.27;2.20;;;;;;;12.57;86.32;99000.78;5052142;28;20200;-86
2023/02/17 10:28:38;;;;;;;2.37;1.60;;;;;;;12.69;86.21;99000.00;5052028;28;20214;-87
2023/02/17 10:31:10;;;;;;;2.63;1.70;;;;;;;12.79;84.97;98999.34;5051993;28;20237;-87
2023/02/17 10:33:42;;;;;;;1.63;1.53;;;;;;;12.97;85.38;98992.84;5051806;28;20578;-87
2023/02/17 10:36:18;;;;;;;2.60;1.90;;;;;;;13.21;83.74;98993.06;5051444;28;20590;-86
2023/02/17 10:38:50;;;;;;;1.93;1.40;;;;;;;13.42;82.80;98981.00;5051922;28;20217;-86
2023/02/17 10:41:22;;;;;;;1.87;1.37;;;;;;;13.56;81.87;98978.28;5051925;28;20583;-86
2023/02/17 10:43:50;;;;;;;2.47;1.33;;;;;;;13.68;80.85;98972.13;5051923;28;20208;-86
2023/02/17 10:46:21;;;;;;;2.17;1.37;;;;;;;13.86;79.66;98976.16;5051574;28;20269;-87
2023/02/17 10:48:50;;;;;;;1.87;1.30;;;;;;;13.93;78.92;98980.13;5052156;28;20578;-86
2023/02/17 10:51:20;;;;;;;4.33;1.43;;;;;;;13.71;78.31;98971.91;5051556;28;20238;-87
2023/02/17 10:53:51;;;;;;;1.53;1.13;;;;;;;13.63;79.27;98961.81;5052693;28;20228;-89
2023/02/17 10:56:24;;;;;;;3.83;1.30;;;;;;;13.64;80.82;98975.94;5051838;28;20216;-89
2023/02/17 10:58:55;;;;;;;1.93;1.20;;;;;;;13.67;80.12;98965.97;5056326;28;20659;-89
2023/02/17 11:01:22;;;;;;;2.63;1.30;;;;;;;13.87;79.56;98962.78;5062233;28;20232;-89
2023/02/17 11:04:00;;;;;;;1.40;1.30;;;;;;;14.04;79.43;98958.94;5052502;28;20207;-89
2023/02/17 11:06:26;;;;;;;1.97;1.00;;;;;;;14.22;77.52;98945.25;5051037;28;20265;-87
2023/02/17 11:08:58;;;;;;;1.20;1.00;;;;;;;14.58;77.20;98949.72;5051475;28;20306;-88
2023/02/17 11:11:29;;;;;;;1.37;1.20;;;;;;;14.68;74.45;98930.34;5050563;28;20235;-87
2023/02/17 11:14:03;;;;;;;1.60;1.20;;;;;;;14.67;75.64;98933.09;5052880;28;20240;-87
2023/02/17 11:16:36;;;;;;;1.90;1.00;;;;;;;14.57;75.51;98922.28;5053623;28;20193;-90
2023/02/17 11:19:04;;;;;;;1.20;1.00;;;;;;;14.40;75.76;98929.78;5071822;28;20195;-93
2023/02/17 11:21:32;;;;;;;0.93;0.70;;;;;;;14.24;76.91;98934.50;5077008;28;20225;-92
2023/02/17 11:24:00;;;;;;;1.80;0.80;;;;;;;14.02;77.98;98944.91;5076089;28;20241;-89
2023/02/17 11:26:31;;;;;;;1.93;0.90;;;;;;;13.86;80.09;98957.56;5061953;28;20205;-90
2023/02/17 11:29:08;;;;;;;1.27;0.60;;;;;;;13.72;80.89;98958.53;5051847;28;20208;-89
2023/02/17 11:31:35;;;;;;;1.23;0.80;;;;;;;13.69;82.35;98963.22;5051800;28;20245;-90
2023/02/17 11:34:11;;;;;;;1.97;0.73;;;;;;;13.59;81.98;98962.13;5051412;28;20231;-89
2023/02/17 11:36:38;;;;;;;3.43;0.90;;;;;;;13.52;81.95;98959.03;5051237;28;20204;-90
2023/02/17 11:39:18;;;;;;;0.80;0.80;;;;;;;13.44;82.40;98958.69;5051559;28;20208;-87
2023/02/17 11:41:46;;;;;;;0.63;0.57;;;;;;;13.38;82.64;98959.13;5051104;28;20232;-87
2023/02/17 11:44:23;;;;;;;0.97;0.70;;;;;;;13.32;82.84;98948.06;5051332;28;20203;-86
2023/02/17 11:46:59;;;;;;;0.70;0.70;;;;;;;13.29;83.64;98953.56;5050708;28;20263;-79
2023/02/17 11:49:57;;;;;;;0.70;0.53;;;;;;;13.30;85.25;98960.56;5051333;28;20215;-89
2023/02/17 11:52:34;;;;;;;3.20;0.80;;;;;;;13.34;84.74;98951.47;5030892;28;20222;-89